Fesco Vladimir — 5BSL2 — position and weather

sailwx.info

Track history (hours):
 
Tides and Currents Weather Stations Pressure Air Temp Water Temp Dewpoint Dewpoint Depression Visibility Wind Speed Wind Dir Waves Ship Positions

Fesco Vladimir

Last reported at 2017-Jul-21 14:00 UTC. Time now 2017-Jul-21 14:38 UTC.
Position N 53°30' E 009°56'.

Length 184 m; draft 8.5 m.

Type: Ship (hazmat cat A). MMSI: 209777000.

Date/timePositionNaut miles runAvg speedWind from/ knotsBaromVisibWave heightAir tempDewpointWater temp
2017-Jul-21 14:00N 53°30' E 009°56'3 5.5
2017-Jul-21 13:30N 53°32' E 009°54'4 8.6
2017-Jul-21 13:01N 53°33' E 009°47'5 9.3
2017-Jul-21 12:31N 53°34' E 009°40'5 9.4
2017-Jul-21 12:00N 53°37' E 009°33'4 8.2
2017-Jul-21 11:30N 53°41' E 009°30'4 8.2
2017-Jul-21 11:00N 53°44' E 009°26'4 7.0
2017-Jul-21 10:30N 53°47' E 009°23'713.4
2017-Jul-21 10:01N 53°52' E 009°16'713.8
2017-Jul-21 09:30N 53°52' E 009°04'917.7
2017-Jul-21 09:01N 53°50' E 008°50'713.6
2017-Jul-21 08:30N 53°55' E 008°41'917.0
2017-Jul-21 08:00N 53°59' E 008°28'817.0
2017-Jul-21 07:30N 53°59' E 008°14'5 9.1
2017-Jul-21 07:00N 53°59' E 008°06'3 6.2
2017-Jul-21 06:29N 54°02' E 008°06'1 0.3
2017-Jul-21 04:31N 54°03' E 008°07'0 0.3
2017-Jul-21 04:01N 54°03' E 008°06'0 0.4
2017-Jul-21 03:52N 54°03' E 008°06'0 0.2
2017-Jul-21 03:28N 54°03' E 008°06'0 0.0
2017-Jul-21 01:55N 54°03' E 008°06'0 0.0
2017-Jul-21 00:13N 54°03' E 008°06'0 0.0
2017-Jul-20 23:43N 54°03' E 008°06'0 0.1
2017-Jul-20 23:28N 54°03' E 008°06'0 0.1
2017-Jul-20 22:58N 54°03' E 008°06'0 0.1
2017-Jul-20 22:22N 54°03' E 008°06'0 0.1
2017-Jul-20 21:58N 54°03' E 008°06'0 0.2
2017-Jul-20 21:30N 54°03' E 008°06'0 0.2
2017-Jul-20 21:00N 54°03' E 008°07'0 0.1
2017-Jul-20 20:30N 54°03' E 008°07'2 4.8
2017-Jul-20 20:00N 54°01' E 008°04'815.6
2017-Jul-20 19:30N 53°56' E 007°54'611.8
2017-Jul-20 19:00N 53°50' E 007°54'612.9
2017-Jul-20 18:30N 53°47' E 008°03'713.5
2017-Jul-20 18:00N 53°40' E 008°06'510.4
2017-Jul-20 17:30N 53°35' E 008°09'0 0.1
2017-Jul-20 16:58N 53°35' E 008°09'0 0.0
2017-Jul-20 16:28N 53°35' E 008°09'0 0.0
2017-Jul-20 15:58N 53°35' E 008°09'0 0.0
2017-Jul-20 15:28N 53°35' E 008°09'0 0.0
2017-Jul-20 14:58N 53°35' E 008°09'0 0.0
2017-Jul-20 13:58N 53°35' E 008°09'0 0.0
2017-Jul-20 13:28N 53°35' E 008°09'0 0.0
2017-Jul-20 12:58N 53°35' E 008°09'0 0.0
2017-Jul-20 12:28N 53°35' E 008°09'0 0.0
2017-Jul-20 11:58N 53°35' E 008°09'0 0.0
2017-Jul-20 11:28N 53°35' E 008°09'0 0.0
2017-Jul-20 10:58N 53°35' E 008°09'0 0.0
2017-Jul-20 10:25N 53°35' E 008°09'0 0.0
2017-Jul-20 09:58N 53°35' E 008°09'0 0.0
2017-Jul-20 09:28N 53°35' E 008°09'0 0.0
2017-Jul-20 08:58N 53°35' E 008°09'0 0.0
2017-Jul-20 08:28N 53°35' E 008°09'0 0.0
2017-Jul-20 07:58N 53°35' E 008°09'0 0.0
2017-Jul-20 07:28N 53°35' E 008°09'0 0.0
2017-Jul-20 06:58N 53°35' E 008°09'0 0.0
2017-Jul-20 06:28N 53°35' E 008°09'0 0.0
2017-Jul-20 05:52N 53°35' E 008°09'0 0.0
2017-Jul-20 05:28N 53°35' E 008°09'0 0.0
2017-Jul-20 04:58N 53°35' E 008°09'0 0.0
2017-Jul-20 04:25N 53°35' E 008°09'0 0.0
2017-Jul-20 03:58N 53°35' E 008°09'0 0.0
2017-Jul-20 03:28N 53°35' E 008°09'1 2.1
2017-Jul-20 03:01N 53°36' E 008°09'713.0
2017-Jul-20 02:30N 53°42' E 008°04'714.7
2017-Jul-20 02:00N 53°48' E 007°58'714.1
2017-Jul-20 01:30N 53°52' E 007°48'612.4
2017-Jul-20 01:01N 53°55' E 007°39'611.4
2017-Jul-20 00:30N 54°01' E 007°36'816.2
2017-Jul-20 00:00N 54°02' E 007°50'817.0
2017-Jul-19 23:30N 54°02' E 008°04'713.3
2017-Jul-19 23:00N 54°00' E 008°15'918.2
2017-Jul-19 22:30N 53°58' E 008°30'816.5
2017-Jul-19 22:01N 53°54' E 008°42'713.8
2017-Jul-19 21:30N 53°50' E 008°52'815.3
2017-Jul-19 21:01N 53°52' E 009°05'3 5.5
2017-Jul-19 20:31N 53°54' E 009°09'0 0.0
2017-Jul-19 20:00N 53°54' E 009°09'1 1.4
2017-Jul-19 19:30N 53°54' E 009°10'1 2.4
2017-Jul-19 19:00N 53°55' E 009°11'3 6.5
2017-Jul-19 18:30N 53°58' E 009°15'3 6.9
2017-Jul-19 18:01N 54°00' E 009°18'2 4.8
2017-Jul-19 17:31N 54°03' E 009°18'3 5.9
2017-Jul-19 16:58N 54°06' E 009°20'3 6.3
2017-Jul-19 16:30N 54°09' E 009°21'1 1.7
2017-Jul-19 16:01N 54°09' E 009°22'3 5.2
2017-Jul-19 15:30N 54°10' E 009°26'3 6.4
2017-Jul-19 15:00N 54°11' E 009°31'3 5.4
2017-Jul-19 14:29N 54°13' E 009°35'31 4.7
2017-Jul-19 07:57N 54°30' E 010°19'612.9
2017-Jul-19 07:30N 54°33' E 010°28'613.0
2017-Jul-19 07:00N 54°35' E 010°38'612.8
2017-Jul-19 06:30N 54°35' E 010°50'4 8.5
2017-Jul-19 06:00N 54°36' E 010°57'713.1
2017-Jul-19 05:30N 54°36' E 011°08'713.2
2017-Jul-19 05:00N 54°34' E 011°18'713.2
2017-Jul-19 04:30N 54°31' E 011°29'713.1
2017-Jul-19 04:00N 54°28' E 011°39'612.6
2017-Jul-19 03:30N 54°26' E 011°49'612.8
2017-Jul-19 03:01N 54°26' E 012°00'612.2
2017-Jul-19 02:31N 54°27' E 012°11'712.8
2017-Jul-19 01:56N 54°34' E 012°15'512.2
2017-Jul-19 01:30N 54°38' E 012°19'713.1
2017-Jul-19 00:56N 54°43' E 012°30'613.1
2017-Jul-19 00:27N 54°46' E 012°39'612.8
2017-Jul-19 00:00N 54°49' E 012°48'612.9
2017-Jul-18 23:30N 54°51' E 012°59'612.7
2017-Jul-18 23:00N 54°53' E 013°09'612.7
2017-Jul-18 22:30N 54°55' E 013°20'612.7
2017-Jul-18 22:00N 54°57' E 013°30'612.7
2017-Jul-18 21:30N 54°59' E 013°40'612.7
2017-Jul-18 21:00N 55°01' E 013°51'612.7
2017-Jul-18 20:30N 55°04' E 014°01'612.1
2017-Jul-18 20:00N 55°08' E 014°09'612.5
2017-Jul-18 19:30N 55°13' E 014°16'612.7
2017-Jul-18 19:00N 55°17' E 014°23'612.5
2017-Jul-18 18:30N 55°22' E 014°30'612.1
2017-Jul-18 18:00N 55°26' E 014°38'612.3
2017-Jul-18 17:30N 55°29' E 014°47'612.2
2017-Jul-18 17:00N 55°33' E 014°56'612.4
2017-Jul-18 16:30N 55°36' E 015°06'612.5
2017-Jul-18 16:00N 55°39' E 015°15'612.2
2017-Jul-18 15:30N 55°42' E 015°25'612.0
2017-Jul-18 15:00N 55°45' E 015°34'1211.9
2017-Jul-18 14:00N 55°51' E 015°52'611.9
2017-Jul-18 13:30N 55°54' E 016°02'611.8
2017-Jul-18 13:00N 55°57' E 016°11'611.9
2017-Jul-18 12:30N 55°60' E 016°20'611.9
2017-Jul-18 12:00N 56°03' E 016°29'612.0
2017-Jul-18 11:30N 56°06' E 016°38'611.7
2017-Jul-18 11:00N 56°09' E 016°47'611.6
2017-Jul-18 10:30N 56°13' E 016°55'611.7
2017-Jul-18 10:00N 56°16' E 017°04'611.8
2017-Jul-18 09:30N 56°20' E 017°12'14612.2
2017-Jul-17 21:28N 58°08' E 020°13'712.0
2017-Jul-17 20:55N 58°14' E 020°21'512.6
2017-Jul-17 20:30N 58°18' E 020°26'611.5
2017-Jul-17 20:00N 58°23' E 020°33'611.3
2017-Jul-17 19:29N 58°27' E 020°40'711.7
2017-Jul-17 18:55N 58°33' E 020°47'511.5
2017-Jul-17 18:29N 58°37' E 020°53'511.4
2017-Jul-17 18:00N 58°41' E 020°59'611.6
2017-Jul-17 17:30N 58°46' E 021°06'611.7
2017-Jul-17 17:00N 58°50' E 021°13'611.9
2017-Jul-17 16:30N 58°55' E 021°19'612.1
2017-Jul-17 16:00N 59°00' E 021°26'611.9
2017-Jul-17 15:30N 59°05' E 021°33'612.1
2017-Jul-17 15:00N 59°09' E 021°41'612.0
2017-Jul-17 14:30N 59°13' E 021°50'611.7
2017-Jul-17 14:00N 59°17' E 021°59'611.9
2017-Jul-17 13:30N 59°20' E 022°08'612.0
2017-Jul-17 13:00N 59°24' E 022°18'612.2
2017-Jul-17 12:30N 59°28' E 022°27'611.8
2017-Jul-17 12:00N 59°30' E 022°38'612.4
2017-Jul-17 11:30N 59°32' E 022°49'612.2
2017-Jul-17 11:00N 59°34' E 023°01'611.9
2017-Jul-17 10:30N 59°36' E 023°12'612.2
2017-Jul-17 10:00N 59°38' E 023°24'612.2
2017-Jul-17 09:30N 59°40' E 023°35'612.3
2017-Jul-17 09:00N 59°42' E 023°47'612.2
2017-Jul-17 08:30N 59°43' E 023°58'612.1
2017-Jul-17 08:00N 59°45' E 024°09'612.3
2017-Jul-17 07:30N 59°47' E 024°21'612.6
2017-Jul-17 07:00N 59°48' E 024°34'612.6
2017-Jul-17 06:30N 59°49' E 024°46'612.7
2017-Jul-17 06:00N 59°50' E 024°58'612.7
2017-Jul-17 05:30N 59°52' E 025°11'612.7
2017-Jul-17 05:00N 59°53' E 025°23'612.6
2017-Jul-17 04:30N 59°54' E 025°35'612.7
2017-Jul-17 04:00N 59°56' E 025°48'612.6
2017-Jul-17 03:30N 59°57' E 025°60'612.6
2017-Jul-17 03:00N 59°59' E 026°12'612.9
2017-Jul-17 02:30N 60°00' E 026°25'612.6
2017-Jul-17 02:00N 60°01' E 026°37'713.0
2017-Jul-17 01:30N 60°00' E 026°50'612.6
2017-Jul-17 01:00N 59°59' E 027°02'713.1
2017-Jul-17 00:30N 60°03' E 027°14'613.0
2017-Jul-17 00:00N 60°06' E 027°25'612.8
2017-Jul-16 23:30N 60°09' E 027°36'612.6
2017-Jul-16 23:00N 60°12' E 027°47'612.8
2017-Jul-16 22:30N 60°10' E 027°60'612.8
2017-Jul-16 22:00N 60°08' E 028°12'612.5
2017-Jul-16 21:30N 60°05' E 028°23'713.3
2017-Jul-16 21:00N 60°03' E 028°35'714.4
2017-Jul-16 20:30N 60°03' E 028°50'612.1
2017-Jul-16 20:00N 60°02' E 029°02'612.0
2017-Jul-16 19:30N 60°02' E 029°14'612.1
2017-Jul-16 19:00N 60°02' E 029°26'5 9.2
2017-Jul-16 18:30N 60°01' E 029°35'611.0
2017-Jul-16 18:00N 59°59' E 029°45'5 9.7
2017-Jul-16 17:30N 59°57' E 029°54'612.0
2017-Jul-16 17:00N 59°54' E 030°05'3 6.6
2017-Jul-16 16:30N 59°53' E 030°11'1 1.8
2017-Jul-16 16:00N 59°52' E 030°12'0 0.0
2017-Jul-16 15:30N 59°52' E 030°12'0 0.0
2017-Jul-16 15:00N 59°52' E 030°12'0 0.0
2017-Jul-16 14:30N 59°52' E 030°12'0 0.0
2017-Jul-16 14:00N 59°52' E 030°12'0 0.0
2017-Jul-16 13:30N 59°52' E 030°12'0 0.0
2017-Jul-16 13:00N 59°52' E 030°12'0 0.0
2017-Jul-16 12:30N 59°52' E 030°12'0 0.0
2017-Jul-16 12:00N 59°52' E 030°12'0 0.0
2017-Jul-16 11:30N 59°52' E 030°12'0 0.0
2017-Jul-16 11:00N 59°52' E 030°12'0 0.0
2017-Jul-16 10:30N 59°52' E 030°12'0 0.0
2017-Jul-16 10:00N 59°52' E 030°12'0 0.0
2017-Jul-16 09:24N 59°52' E 030°12'0 0.0
2017-Jul-16 09:00N 59°52' E 030°12'0 0.0
2017-Jul-16 08:30N 59°52' E 030°12'0 0.0
2017-Jul-16 08:00N 59°52' E 030°12'0 0.0
2017-Jul-16 07:30N 59°52' E 030°12'0 0.0
2017-Jul-16 06:57N 59°52' E 030°12'0 0.0
2017-Jul-16 06:30N 59°52' E 030°12'0 0.0
2017-Jul-16 06:00N 59°52' E 030°12'0 0.0
2017-Jul-16 05:30N 59°52' E 030°12'0 0.0
2017-Jul-16 05:00N 59°52' E 030°12'0 0.0
2017-Jul-16 04:30N 59°52' E 030°12'0 0.0
2017-Jul-16 03:51N 59°52' E 030°12'0 0.0
2017-Jul-16 03:30N 59°52' E 030°12'0 0.0
2017-Jul-16 03:00N 59°52' E 030°12'0 0.0
2017-Jul-16 02:30N 59°52' E 030°12'0 0.0
2017-Jul-16 02:00N 59°52' E 030°12'0 0.0
2017-Jul-16 01:30N 59°52' E 030°12'0 0.0
2017-Jul-16 00:57N 59°52' E 030°12'0 0.0
2017-Jul-16 00:30N 59°52' E 030°12'0 0.0
2017-Jul-16 00:00N 59°52' E 030°12'0 0.0
2017-Jul-15 23:30N 59°52' E 030°12'0 0.0
2017-Jul-15 23:00N 59°52' E 030°12'1 1.0
2017-Jul-15 22:30N 59°53' E 030°12'0 0.6
2017-Jul-15 22:00N 59°53' E 030°11'0 0.0
2017-Jul-15 21:30N 59°53' E 030°11'0 0.0
2017-Jul-15 21:00N 59°53' E 030°11'0 0.0
2017-Jul-15 20:30N 59°53' E 030°11'0 0.0
2017-Jul-15 19:51N 59°53' E 030°11'0 0.0
2017-Jul-15 19:27N 59°53' E 030°11'0 0.0
2017-Jul-15 19:00N 59°53' E 030°11'0 0.0
2017-Jul-15 18:30N 59°53' E 030°11'0 0.0
2017-Jul-15 18:00N 59°53' E 030°11'0 0.0
2017-Jul-15 17:30N 59°53' E 030°11'0 0.0
2017-Jul-15 17:00N 59°53' E 030°11'0 0.0
2017-Jul-15 16:29N 59°53' E 030°11'0 0.0
2017-Jul-15 15:59N 59°53' E 030°11'0 0.0
2017-Jul-15 15:29N 59°53' E 030°11'0 0.0
2017-Jul-15 14:59N 59°53' E 030°11'0 0.0
2017-Jul-15 14:00N 59°53' E 030°11'1 2.9
2017-Jul-15 13:30N 59°54' E 030°09'510.8
2017-Jul-15 13:00N 59°56' E 029°59'611.6
2017-Jul-15 12:30N 59°58' E 029°48'3 5.3
2017-Jul-15 12:01N 59°59' E 029°44'3 5.9
2017-Jul-15 11:30N 59°56' E 029°42'0 0.2
2017-Jul-15 10:57N 59°56' E 029°42'0 0.0
2017-Jul-15 10:30N 59°56' E 029°42'0 0.0
2017-Jul-15 09:54N 59°56' E 029°42'0 0.0
2017-Jul-15 09:30N 59°56' E 029°42'0 0.0
2017-Jul-15 09:00N 59°56' E 029°42'0 0.0
2017-Jul-15 08:30N 59°56' E 029°42'0 0.0
2017-Jul-15 07:57N 59°56' E 029°42'0 0.0
2017-Jul-15 07:24N 59°56' E 029°42'0 0.0
2017-Jul-15 07:00N 59°56' E 029°42'0 0.0
2017-Jul-15 06:30N 59°56' E 029°42'0 0.0
2017-Jul-15 06:00N 59°56' E 029°42'0 0.0
2017-Jul-15 05:30N 59°56' E 029°42'0 0.0
2017-Jul-15 05:00N 59°56' E 029°42'0 0.1
2017-Jul-15 04:30N 59°56' E 029°42'2 4.8
2017-Jul-15 04:01N 59°58' E 029°45'5 8.7
2017-Jul-15 03:28N 60°00' E 029°36'510.2
2017-Jul-15 02:59N 60°01' E 029°27'3 4.7
2017-Jul-15 02:23N 60°01' E 029°21'2 6.2
2017-Jul-15 02:00N 60°02' E 029°16'3 5.7
2017-Jul-15 01:30N 60°02' E 029°11'3 6.1
2017-Jul-15 01:00N 60°02' E 029°05'3 6.6
2017-Jul-15 00:30N 60°02' E 028°58'3 6.8
2017-Jul-15 00:00N 60°02' E 028°51'3 6.6
2017-Jul-14 23:30N 60°02' E 028°45'3 6.5
2017-Jul-14 23:01N 60°02' E 028°38'5 9.8
2017-Jul-14 22:30N 59°57' E 028°35'611.0
2017-Jul-14 22:01N 59°52' E 028°29'714.3
2017-Jul-14 21:30N 59°46' E 028°24'4 8.6
2017-Jul-14 21:01N 59°41' E 028°24'1 1.5
2017-Jul-14 20:28N 59°40' E 028°24'0 0.0
2017-Jul-14 19:53N 59°40' E 028°24'0 0.0
2017-Jul-14 19:19N 59°40' E 028°24'0 0.0
2017-Jul-14 18:59N 59°40' E 028°24'0 0.0
2017-Jul-14 18:27N 59°40' E 028°24'0 0.0
2017-Jul-14 17:59N 59°40' E 028°24'0 0.0
2017-Jul-14 17:28N 59°40' E 028°24'0 0.0
2017-Jul-14 16:56N 59°40' E 028°24'0 0.0
2017-Jul-14 16:29N 59°40' E 028°24'0 0.0
2017-Jul-14 16:00N 59°40' E 028°24'0 0.0
2017-Jul-14 15:23N 59°40' E 028°24'0 0.0
2017-Jul-14 14:55N 59°40' E 028°24'0 0.0
2017-Jul-14 14:25N 59°40' E 028°24'0 0.0
2017-Jul-14 13:55N 59°40' E 028°24'0 0.0
2017-Jul-14 13:25N 59°40' E 028°24'0 0.0
2017-Jul-14 12:55N 59°40' E 028°24'0 0.5
2017-Jul-14 12:30N 59°41' E 028°24'2 4.6
2017-Jul-14 12:00N 59°43' E 028°23'5 9.3
2017-Jul-14 11:31N 59°48' E 028°25'612.2
2017-Jul-14 11:00N 59°53' E 028°29'5 9.6
2017-Jul-14 10:30N 59°57' E 028°34'3 6.0
2017-Jul-14 10:01N 60°00' E 028°36'610.9
2017-Jul-14 09:30N 60°03' E 028°26'713.2
2017-Jul-14 09:00N 60°07' E 028°15'612.5
2017-Jul-14 08:31N 60°09' E 028°03'612.8
2017-Jul-14 08:01N 60°10' E 027°51'612.3
2017-Jul-14 07:30N 60°08' E 027°39'612.6
2017-Jul-14 07:00N 60°05' E 027°28'612.9
2017-Jul-14 06:31N 60°02' E 027°17'612.8
2017-Jul-14 06:01N 59°58' E 027°06'612.3
2017-Jul-14 05:30N 59°58' E 026°54'612.8
2017-Jul-14 05:00N 59°59' E 026°41'713.1
2017-Jul-14 04:30N 59°58' E 026°29'612.5
2017-Jul-14 04:01N 59°56' E 026°16'612.8
2017-Jul-14 03:31N 59°54' E 026°04'612.8
2017-Jul-14 03:01N 59°53' E 025°52'713.0
2017-Jul-14 02:31N 59°51' E 025°39'612.6
2017-Jul-14 02:01N 59°50' E 025°27'612.8
2017-Jul-14 01:31N 59°48' E 025°15'612.6
2017-Jul-14 01:01N 59°47' E 025°03'612.6
2017-Jul-14 00:31N 59°46' E 024°50'612.7
2017-Jul-14 00:01N 59°44' E 024°38'612.7
2017-Jul-13 23:30N 59°43' E 024°26'612.8
2017-Jul-13 23:00N 59°41' E 024°14'612.9
2017-Jul-13 22:31N 59°39' E 024°02'612.5
2017-Jul-13 22:00N 59°37' E 023°50'612.7
2017-Jul-13 21:30N 59°35' E 023°38'612.7
2017-Jul-13 21:01N 59°33' E 023°26'714.4
2017-Jul-13 20:30N 59°30' E 023°13'611.4
2017-Jul-13 20:00N 59°29' E 023°02'714.4
2017-Jul-13 19:31N 59°26' E 022°49'611.4
2017-Jul-13 19:01N 59°24' E 022°38'612.9
2017-Jul-13 18:30N 59°21' E 022°28'713.3
2017-Jul-13 18:01N 59°17' E 022°17'713.4
2017-Jul-13 17:31N 59°13' E 022°07'713.5
2017-Jul-13 17:00N 59°09' E 021°56'713.4
2017-Jul-13 16:31N 59°04' E 021°46'713.2
2017-Jul-13 16:00N 58°59' E 021°38'713.2
2017-Jul-13 15:30N 58°54' E 021°30'2313.0
2017-Jul-13 13:43N 58°35' E 021°03'17412.5
2017-Jul-12 23:47N 56°24' E 017°33'613.3
2017-Jul-12 23:20N 56°20' E 017°25'413.3
2017-Jul-12 23:00N 56°17' E 017°18'713.3
2017-Jul-12 22:28N 56°13' E 017°08'613.4
2017-Jul-12 22:00N 56°10' E 016°59'713.3
2017-Jul-12 21:30N 56°06' E 016°49'713.4
2017-Jul-12 21:00N 56°02' E 016°39'713.2
2017-Jul-12 20:30N 55°58' E 016°30'713.2
2017-Jul-12 20:00N 55°54' E 016°20'8713.2
2017-Jul-12 13:27N 55°04' E 014°15'613.0
2017-Jul-12 13:00N 55°00' E 014°08'713.6
2017-Jul-12 12:29N 54°58' E 013°56'713.5
2017-Jul-12 12:00N 54°56' E 013°45'713.6
2017-Jul-12 11:29N 54°54' E 013°34'3813.3
2017-Jul-12 08:38N 54°40' E 012°32'213.0
2017-Jul-12 08:30N 54°40' E 012°30'712.9
2017-Jul-12 07:58N 54°35' E 012°20'613.2
2017-Jul-12 07:30N 54°30' E 012°16'712.6
2017-Jul-12 06:58N 54°24' E 012°09'2513.1
2017-Jul-12 05:02N 54°30' E 011°26'013.0
2017-Jul-12 05:00N 54°30' E 011°26'612.8
2017-Jul-12 04:30N 54°33' E 011°16'713.0
2017-Jul-12 04:00N 54°35' E 011°05'713.5
2017-Jul-12 03:30N 54°35' E 010°54'713.4
2017-Jul-12 03:00N 54°34' E 010°42'713.5
2017-Jul-12 02:28N 54°32' E 010°30'613.4
2017-Jul-12 02:00N 54°30' E 010°20'711.1
2017-Jul-12 01:21N 54°24' E 010°12'20 4.7
2017-Jul-11 21:03N 54°17' E 009°40'1 6.6
2017-Jul-11 20:56N 54°17' E 009°39'4 6.8
2017-Jul-11 20:18N 54°13' E 009°36'2 6.7
2017-Jul-11 20:00N 54°12' E 009°33'4 6.7
2017-Jul-11 19:28N 54°11' E 009°27'3 6.4
2017-Jul-11 18:59N 54°09' E 009°23'4 5.7
2017-Jul-11 18:17N 54°06' E 009°20'2 6.6
2017-Jul-11 18:00N 54°04' E 009°19'3 6.7
2017-Jul-11 17:30N 54°01' E 009°18'3 6.5
2017-Jul-11 17:01N 53°58' E 009°15'3 6.1
2017-Jul-11 16:30N 53°55' E 009°12'3 5.4
2017-Jul-11 16:01N 53°54' E 009°09'0 0.0
2017-Jul-11 15:30N 53°54' E 009°09'1 3.0
2017-Jul-11 15:01N 53°53' E 009°06'0 0.2
2017-Jul-11 14:30N 53°53' E 009°06'2 3.5
2017-Jul-11 14:00N 53°53' E 009°09'  
Track history (hours):
 
Tides and Currents Weather Stations Pressure Air Temp Water Temp Dewpoint Dewpoint Depression Visibility Wind Speed Wind Dir Waves Ship Positions

Fesco Vladimir

Last reported at 2017-Jul-21 14:00 UTC. Time now 2017-Jul-21 14:38 UTC.
Position N 53°30' E 009°56'.

Length 184 m; draft 8.5 m.

Type: Ship (hazmat cat A). MMSI: 209777000.

Date/timePositionNaut miles runAvg speedWind from/ knotsBaromVisibWave heightAir tempDewpointWater temp
2017-Jul-21 14:00N 53°30' E 009°56'3 5.5
2017-Jul-21 13:30N 53°32' E 009°54'4 8.6
2017-Jul-21 13:01N 53°33' E 009°47'5 9.3
2017-Jul-21 12:31N 53°34' E 009°40'5 9.4
2017-Jul-21 12:00N 53°37' E 009°33'4 8.2
2017-Jul-21 11:30N 53°41' E 009°30'4 8.2
2017-Jul-21 11:00N 53°44' E 009°26'4 7.0
2017-Jul-21 10:30N 53°47' E 009°23'713.4
2017-Jul-21 10:01N 53°52' E 009°16'713.8
2017-Jul-21 09:30N 53°52' E 009°04'917.7
2017-Jul-21 09:01N 53°50' E 008°50'713.6
2017-Jul-21 08:30N 53°55' E 008°41'917.0
2017-Jul-21 08:00N 53°59' E 008°28'817.0
2017-Jul-21 07:30N 53°59' E 008°14'5 9.1
2017-Jul-21 07:00N 53°59' E 008°06'3 6.2
2017-Jul-21 06:29N 54°02' E 008°06'1 0.3
2017-Jul-21 04:31N 54°03' E 008°07'0 0.3
2017-Jul-21 04:01N 54°03' E 008°06'0 0.4
2017-Jul-21 03:52N 54°03' E 008°06'0 0.2
2017-Jul-21 03:28N 54°03' E 008°06'0 0.0
2017-Jul-21 01:55N 54°03' E 008°06'0 0.0
2017-Jul-21 00:13N 54°03' E 008°06'0 0.0
2017-Jul-20 23:43N 54°03' E 008°06'0 0.1
2017-Jul-20 23:28N 54°03' E 008°06'0 0.1
2017-Jul-20 22:58N 54°03' E 008°06'0 0.1
2017-Jul-20 22:22N 54°03' E 008°06'0 0.1
2017-Jul-20 21:58N 54°03' E 008°06'0 0.2
2017-Jul-20 21:30N 54°03' E 008°06'0 0.2
2017-Jul-20 21:00N 54°03' E 008°07'0 0.1
2017-Jul-20 20:30N 54°03' E 008°07'2 4.8
2017-Jul-20 20:00N 54°01' E 008°04'815.6
2017-Jul-20 19:30N 53°56' E 007°54'611.8
2017-Jul-20 19:00N 53°50' E 007°54'612.9
2017-Jul-20 18:30N 53°47' E 008°03'713.5
2017-Jul-20 18:00N 53°40' E 008°06'510.4
2017-Jul-20 17:30N 53°35' E 008°09'0 0.1
2017-Jul-20 16:58N 53°35' E 008°09'0 0.0
2017-Jul-20 16:28N 53°35' E 008°09'0 0.0
2017-Jul-20 15:58N 53°35' E 008°09'0 0.0
2017-Jul-20 15:28N 53°35' E 008°09'0 0.0
2017-Jul-20 14:58N 53°35' E 008°09'0 0.0
2017-Jul-20 13:58N 53°35' E 008°09'0 0.0
2017-Jul-20 13:28N 53°35' E 008°09'0 0.0
2017-Jul-20 12:58N 53°35' E 008°09'0 0.0
2017-Jul-20 12:28N 53°35' E 008°09'0 0.0
2017-Jul-20 11:58N 53°35' E 008°09'0 0.0
2017-Jul-20 11:28N 53°35' E 008°09'0 0.0
2017-Jul-20 10:58N 53°35' E 008°09'0 0.0
2017-Jul-20 10:25N 53°35' E 008°09'0 0.0
2017-Jul-20 09:58N 53°35' E 008°09'0 0.0
2017-Jul-20 09:28N 53°35' E 008°09'0 0.0
2017-Jul-20 08:58N 53°35' E 008°09'0 0.0
2017-Jul-20 08:28N 53°35' E 008°09'0 0.0
2017-Jul-20 07:58N 53°35' E 008°09'0 0.0
2017-Jul-20 07:28N 53°35' E 008°09'0 0.0
2017-Jul-20 06:58N 53°35' E 008°09'0 0.0
2017-Jul-20 06:28N 53°35' E 008°09'0 0.0
2017-Jul-20 05:52N 53°35' E 008°09'0 0.0
2017-Jul-20 05:28N 53°35' E 008°09'0 0.0
2017-Jul-20 04:58N 53°35' E 008°09'0 0.0
2017-Jul-20 04:25N 53°35' E 008°09'0 0.0
2017-Jul-20 03:58N 53°35' E 008°09'0 0.0
2017-Jul-20 03:28N 53°35' E 008°09'1 2.1
2017-Jul-20 03:01N 53°36' E 008°09'713.0
2017-Jul-20 02:30N 53°42' E 008°04'714.7
2017-Jul-20 02:00N 53°48' E 007°58'714.1
2017-Jul-20 01:30N 53°52' E 007°48'612.4
2017-Jul-20 01:01N 53°55' E 007°39'611.4
2017-Jul-20 00:30N 54°01' E 007°36'816.2
2017-Jul-20 00:00N 54°02' E 007°50'817.0
2017-Jul-19 23:30N 54°02' E 008°04'713.3
2017-Jul-19 23:00N 54°00' E 008°15'918.2
2017-Jul-19 22:30N 53°58' E 008°30'816.5
2017-Jul-19 22:01N 53°54' E 008°42'713.8
2017-Jul-19 21:30N 53°50' E 008°52'815.3
2017-Jul-19 21:01N 53°52' E 009°05'3 5.5
2017-Jul-19 20:31N 53°54' E 009°09'0 0.0
2017-Jul-19 20:00N 53°54' E 009°09'1 1.4
2017-Jul-19 19:30N 53°54' E 009°10'1 2.4
2017-Jul-19 19:00N 53°55' E 009°11'3 6.5
2017-Jul-19 18:30N 53°58' E 009°15'3 6.9
2017-Jul-19 18:01N 54°00' E 009°18'2 4.8
2017-Jul-19 17:31N 54°03' E 009°18'3 5.9
2017-Jul-19 16:58N 54°06' E 009°20'3 6.3
2017-Jul-19 16:30N 54°09' E 009°21'1 1.7
2017-Jul-19 16:01N 54°09' E 009°22'3 5.2
2017-Jul-19 15:30N 54°10' E 009°26'3 6.4
2017-Jul-19 15:00N 54°11' E 009°31'3 5.4
2017-Jul-19 14:29N 54°13' E 009°35'31 4.7
2017-Jul-19 07:57N 54°30' E 010°19'612.9
2017-Jul-19 07:30N 54°33' E 010°28'613.0
2017-Jul-19 07:00N 54°35' E 010°38'612.8
2017-Jul-19 06:30N 54°35' E 010°50'4 8.5
2017-Jul-19 06:00N 54°36' E 010°57'713.1
2017-Jul-19 05:30N 54°36' E 011°08'713.2
2017-Jul-19 05:00N 54°34' E 011°18'713.2
2017-Jul-19 04:30N 54°31' E 011°29'713.1
2017-Jul-19 04:00N 54°28' E 011°39'612.6
2017-Jul-19 03:30N 54°26' E 011°49'612.8
2017-Jul-19 03:01N 54°26' E 012°00'612.2
2017-Jul-19 02:31N 54°27' E 012°11'712.8
2017-Jul-19 01:56N 54°34' E 012°15'512.2
2017-Jul-19 01:30N 54°38' E 012°19'713.1
2017-Jul-19 00:56N 54°43' E 012°30'613.1
2017-Jul-19 00:27N 54°46' E 012°39'612.8
2017-Jul-19 00:00N 54°49' E 012°48'612.9
2017-Jul-18 23:30N 54°51' E 012°59'612.7
2017-Jul-18 23:00N 54°53' E 013°09'612.7
2017-Jul-18 22:30N 54°55' E 013°20'612.7
2017-Jul-18 22:00N 54°57' E 013°30'612.7
2017-Jul-18 21:30N 54°59' E 013°40'612.7
2017-Jul-18 21:00N 55°01' E 013°51'612.7
2017-Jul-18 20:30N 55°04' E 014°01'612.1
2017-Jul-18 20:00N 55°08' E 014°09'612.5
2017-Jul-18 19:30N 55°13' E 014°16'612.7
2017-Jul-18 19:00N 55°17' E 014°23'612.5
2017-Jul-18 18:30N 55°22' E 014°30'612.1
2017-Jul-18 18:00N 55°26' E 014°38'612.3
2017-Jul-18 17:30N 55°29' E 014°47'612.2
2017-Jul-18 17:00N 55°33' E 014°56'612.4
2017-Jul-18 16:30N 55°36' E 015°06'612.5
2017-Jul-18 16:00N 55°39' E 015°15'612.2
2017-Jul-18 15:30N 55°42' E 015°25'612.0
2017-Jul-18 15:00N 55°45' E 015°34'1211.9
2017-Jul-18 14:00N 55°51' E 015°52'611.9
2017-Jul-18 13:30N 55°54' E 016°02'611.8
2017-Jul-18 13:00N 55°57' E 016°11'611.9
2017-Jul-18 12:30N 55°60' E 016°20'611.9
2017-Jul-18 12:00N 56°03' E 016°29'612.0
2017-Jul-18 11:30N 56°06' E 016°38'611.7
2017-Jul-18 11:00N 56°09' E 016°47'611.6
2017-Jul-18 10:30N 56°13' E 016°55'611.7
2017-Jul-18 10:00N 56°16' E 017°04'611.8
2017-Jul-18 09:30N 56°20' E 017°12'14612.2
2017-Jul-17 21:28N 58°08' E 020°13'712.0
2017-Jul-17 20:55N 58°14' E 020°21'512.6
2017-Jul-17 20:30N 58°18' E 020°26'611.5
2017-Jul-17 20:00N 58°23' E 020°33'611.3
2017-Jul-17 19:29N 58°27' E 020°40'711.7
2017-Jul-17 18:55N 58°33' E 020°47'511.5
2017-Jul-17 18:29N 58°37' E 020°53'511.4
2017-Jul-17 18:00N 58°41' E 020°59'611.6
2017-Jul-17 17:30N 58°46' E 021°06'611.7
2017-Jul-17 17:00N 58°50' E 021°13'611.9
2017-Jul-17 16:30N 58°55' E 021°19'612.1
2017-Jul-17 16:00N 59°00' E 021°26'611.9
2017-Jul-17 15:30N 59°05' E 021°33'612.1
2017-Jul-17 15:00N 59°09' E 021°41'612.0
2017-Jul-17 14:30N 59°13' E 021°50'611.7
2017-Jul-17 14:00N 59°17' E 021°59'611.9
2017-Jul-17 13:30N 59°20' E 022°08'612.0
2017-Jul-17 13:00N 59°24' E 022°18'612.2
2017-Jul-17 12:30N 59°28' E 022°27'611.8
2017-Jul-17 12:00N 59°30' E 022°38'612.4
2017-Jul-17 11:30N 59°32' E 022°49'612.2
2017-Jul-17 11:00N 59°34' E 023°01'611.9
2017-Jul-17 10:30N 59°36' E 023°12'612.2
2017-Jul-17 10:00N 59°38' E 023°24'612.2
2017-Jul-17 09:30N 59°40' E 023°35'612.3
2017-Jul-17 09:00N 59°42' E 023°47'612.2
2017-Jul-17 08:30N 59°43' E 023°58'612.1
2017-Jul-17 08:00N 59°45' E 024°09'612.3
2017-Jul-17 07:30N 59°47' E 024°21'612.6
2017-Jul-17 07:00N 59°48' E 024°34'612.6
2017-Jul-17 06:30N 59°49' E 024°46'612.7
2017-Jul-17 06:00N 59°50' E 024°58'612.7
2017-Jul-17 05:30N 59°52' E 025°11'612.7
2017-Jul-17 05:00N 59°53' E 025°23'612.6
2017-Jul-17 04:30N 59°54' E 025°35'612.7
2017-Jul-17 04:00N 59°56' E 025°48'612.6
2017-Jul-17 03:30N 59°57' E 025°60'612.6
2017-Jul-17 03:00N 59°59' E 026°12'612.9
2017-Jul-17 02:30N 60°00' E 026°25'612.6
2017-Jul-17 02:00N 60°01' E 026°37'713.0
2017-Jul-17 01:30N 60°00' E 026°50'612.6
2017-Jul-17 01:00N 59°59' E 027°02'713.1
2017-Jul-17 00:30N 60°03' E 027°14'613.0
2017-Jul-17 00:00N 60°06' E 027°25'612.8
2017-Jul-16 23:30N 60°09' E 027°36'612.6
2017-Jul-16 23:00N 60°12' E 027°47'612.8
2017-Jul-16 22:30N 60°10' E 027°60'612.8
2017-Jul-16 22:00N 60°08' E 028°12'612.5
2017-Jul-16 21:30N 60°05' E 028°23'713.3
2017-Jul-16 21:00N 60°03' E 028°35'714.4
2017-Jul-16 20:30N 60°03' E 028°50'612.1
2017-Jul-16 20:00N 60°02' E 029°02'612.0
2017-Jul-16 19:30N 60°02' E 029°14'612.1
2017-Jul-16 19:00N 60°02' E 029°26'5 9.2
2017-Jul-16 18:30N 60°01' E 029°35'611.0
2017-Jul-16 18:00N 59°59' E 029°45'5 9.7
2017-Jul-16 17:30N 59°57' E 029°54'612.0
2017-Jul-16 17:00N 59°54' E 030°05'3 6.6
2017-Jul-16 16:30N 59°53' E 030°11'1 1.8
2017-Jul-16 16:00N 59°52' E 030°12'0 0.0
2017-Jul-16 15:30N 59°52' E 030°12'0 0.0
2017-Jul-16 15:00N 59°52' E 030°12'0 0.0
2017-Jul-16 14:30N 59°52' E 030°12'0 0.0
2017-Jul-16 14:00N 59°52' E 030°12'0 0.0
2017-Jul-16 13:30N 59°52' E 030°12'0 0.0
2017-Jul-16 13:00N 59°52' E 030°12'0 0.0
2017-Jul-16 12:30N 59°52' E 030°12'0 0.0
2017-Jul-16 12:00N 59°52' E 030°12'0 0.0
2017-Jul-16 11:30N 59°52' E 030°12'0 0.0
2017-Jul-16 11:00N 59°52' E 030°12'0 0.0
2017-Jul-16 10:30N 59°52' E 030°12'0 0.0
2017-Jul-16 10:00N 59°52' E 030°12'0 0.0
2017-Jul-16 09:24N 59°52' E 030°12'0 0.0
2017-Jul-16 09:00N 59°52' E 030°12'0 0.0
2017-Jul-16 08:30N 59°52' E 030°12'0 0.0
2017-Jul-16 08:00N 59°52' E 030°12'0 0.0
2017-Jul-16 07:30N 59°52' E 030°12'0 0.0
2017-Jul-16 06:57N 59°52' E 030°12'0 0.0
2017-Jul-16 06:30N 59°52' E 030°12'0 0.0
2017-Jul-16 06:00N 59°52' E 030°12'0 0.0
2017-Jul-16 05:30N 59°52' E 030°12'0 0.0
2017-Jul-16 05:00N 59°52' E 030°12'0 0.0
2017-Jul-16 04:30N 59°52' E 030°12'0 0.0
2017-Jul-16 03:51N 59°52' E 030°12'0 0.0
2017-Jul-16 03:30N 59°52' E 030°12'0 0.0
2017-Jul-16 03:00N 59°52' E 030°12'0 0.0
2017-Jul-16 02:30N 59°52' E 030°12'0 0.0
2017-Jul-16 02:00N 59°52' E 030°12'0 0.0
2017-Jul-16 01:30N 59°52' E 030°12'0 0.0
2017-Jul-16 00:57N 59°52' E 030°12'0 0.0
2017-Jul-16 00:30N 59°52' E 030°12'0 0.0
2017-Jul-16 00:00N 59°52' E 030°12'0 0.0
2017-Jul-15 23:30N 59°52' E 030°12'0 0.0
2017-Jul-15 23:00N 59°52' E 030°12'1 1.0
2017-Jul-15 22:30N 59°53' E 030°12'0 0.6
2017-Jul-15 22:00N 59°53' E 030°11'0 0.0
2017-Jul-15 21:30N 59°53' E 030°11'0 0.0
2017-Jul-15 21:00N 59°53' E 030°11'0 0.0
2017-Jul-15 20:30N 59°53' E 030°11'0 0.0
2017-Jul-15 19:51N 59°53' E 030°11'0 0.0
2017-Jul-15 19:27N 59°53' E 030°11'0 0.0
2017-Jul-15 19:00N 59°53' E 030°11'0 0.0
2017-Jul-15 18:30N 59°53' E 030°11'0 0.0
2017-Jul-15 18:00N 59°53' E 030°11'0 0.0
2017-Jul-15 17:30N 59°53' E 030°11'0 0.0
2017-Jul-15 17:00N 59°53' E 030°11'0 0.0
2017-Jul-15 16:29N 59°53' E 030°11'0 0.0
2017-Jul-15 15:59N 59°53' E 030°11'0 0.0
2017-Jul-15 15:29N 59°53' E 030°11'0 0.0
2017-Jul-15 14:59N 59°53' E 030°11'0 0.0
2017-Jul-15 14:00N 59°53' E 030°11'1 2.9
2017-Jul-15 13:30N 59°54' E 030°09'510.8
2017-Jul-15 13:00N 59°56' E 029°59'611.6
2017-Jul-15 12:30N 59°58' E 029°48'3 5.3
2017-Jul-15 12:01N 59°59' E 029°44'3 5.9
2017-Jul-15 11:30N 59°56' E 029°42'0 0.2
2017-Jul-15 10:57N 59°56' E 029°42'0 0.0
2017-Jul-15 10:30N 59°56' E 029°42'0 0.0
2017-Jul-15 09:54N 59°56' E 029°42'0 0.0
2017-Jul-15 09:30N 59°56' E 029°42'0 0.0
2017-Jul-15 09:00N 59°56' E 029°42'0 0.0
2017-Jul-15 08:30N 59°56' E 029°42'0 0.0
2017-Jul-15 07:57N 59°56' E 029°42'0 0.0
2017-Jul-15 07:24N 59°56' E 029°42'0 0.0
2017-Jul-15 07:00N 59°56' E 029°42'0 0.0
2017-Jul-15 06:30N 59°56' E 029°42'0 0.0
2017-Jul-15 06:00N 59°56' E 029°42'0 0.0
2017-Jul-15 05:30N 59°56' E 029°42'0 0.0
2017-Jul-15 05:00N 59°56' E 029°42'0 0.1
2017-Jul-15 04:30N 59°56' E 029°42'2 4.8
2017-Jul-15 04:01N 59°58' E 029°45'5 8.7
2017-Jul-15 03:28N 60°00' E 029°36'510.2
2017-Jul-15 02:59N 60°01' E 029°27'3 4.7
2017-Jul-15 02:23N 60°01' E 029°21'2 6.2
2017-Jul-15 02:00N 60°02' E 029°16'3 5.7
2017-Jul-15 01:30N 60°02' E 029°11'3 6.1
2017-Jul-15 01:00N 60°02' E 029°05'3 6.6
2017-Jul-15 00:30N 60°02' E 028°58'3 6.8
2017-Jul-15 00:00N 60°02' E 028°51'3 6.6
2017-Jul-14 23:30N 60°02' E 028°45'3 6.5
2017-Jul-14 23:01N 60°02' E 028°38'5 9.8
2017-Jul-14 22:30N 59°57' E 028°35'611.0
2017-Jul-14 22:01N 59°52' E 028°29'714.3
2017-Jul-14 21:30N 59°46' E 028°24'4 8.6
2017-Jul-14 21:01N 59°41' E 028°24'1 1.5
2017-Jul-14 20:28N 59°40' E 028°24'0 0.0
2017-Jul-14 19:53N 59°40' E 028°24'0 0.0
2017-Jul-14 19:19N 59°40' E 028°24'0 0.0
2017-Jul-14 18:59N 59°40' E 028°24'0 0.0
2017-Jul-14 18:27N 59°40' E 028°24'0 0.0
2017-Jul-14 17:59N 59°40' E 028°24'0 0.0
2017-Jul-14 17:28N 59°40' E 028°24'0 0.0
2017-Jul-14 16:56N 59°40' E 028°24'0 0.0
2017-Jul-14 16:29N 59°40' E 028°24'0 0.0
2017-Jul-14 16:00N 59°40' E 028°24'0 0.0
2017-Jul-14 15:23N 59°40' E 028°24'0 0.0
2017-Jul-14 14:55N 59°40' E 028°24'0 0.0
2017-Jul-14 14:25N 59°40' E 028°24'0 0.0
2017-Jul-14 13:55N 59°40' E 028°24'0 0.0
2017-Jul-14 13:25N 59°40' E 028°24'0 0.0
2017-Jul-14 12:55N 59°40' E 028°24'0 0.5
2017-Jul-14 12:30N 59°41' E 028°24'2 4.6
2017-Jul-14 12:00N 59°43' E 028°23'5 9.3
2017-Jul-14 11:31N 59°48' E 028°25'612.2
2017-Jul-14 11:00N 59°53' E 028°29'5 9.6
2017-Jul-14 10:30N 59°57' E 028°34'3 6.0
2017-Jul-14 10:01N 60°00' E 028°36'610.9
2017-Jul-14 09:30N 60°03' E 028°26'713.2
2017-Jul-14 09:00N 60°07' E 028°15'612.5
2017-Jul-14 08:31N 60°09' E 028°03'612.8
2017-Jul-14 08:01N 60°10' E 027°51'612.3
2017-Jul-14 07:30N 60°08' E 027°39'612.6
2017-Jul-14 07:00N 60°05' E 027°28'612.9
2017-Jul-14 06:31N 60°02' E 027°17'612.8
2017-Jul-14 06:01N 59°58' E 027°06'612.3
2017-Jul-14 05:30N 59°58' E 026°54'612.8
2017-Jul-14 05:00N 59°59' E 026°41'713.1
2017-Jul-14 04:30N 59°58' E 026°29'612.5
2017-Jul-14 04:01N 59°56' E 026°16'612.8
2017-Jul-14 03:31N 59°54' E 026°04'612.8
2017-Jul-14 03:01N 59°53' E 025°52'713.0
2017-Jul-14 02:31N 59°51' E 025°39'612.6
2017-Jul-14 02:01N 59°50' E 025°27'612.8
2017-Jul-14 01:31N 59°48' E 025°15'612.6
2017-Jul-14 01:01N 59°47' E 025°03'612.6
2017-Jul-14 00:31N 59°46' E 024°50'612.7
2017-Jul-14 00:01N 59°44' E 024°38'612.7
2017-Jul-13 23:30N 59°43' E 024°26'612.8
2017-Jul-13 23:00N 59°41' E 024°14'612.9
2017-Jul-13 22:31N 59°39' E 024°02'612.5
2017-Jul-13 22:00N 59°37' E 023°50'612.7
2017-Jul-13 21:30N 59°35' E 023°38'612.7
2017-Jul-13 21:01N 59°33' E 023°26'714.4
2017-Jul-13 20:30N 59°30' E 023°13'611.4
2017-Jul-13 20:00N 59°29' E 023°02'714.4
2017-Jul-13 19:31N 59°26' E 022°49'611.4
2017-Jul-13 19:01N 59°24' E 022°38'612.9
2017-Jul-13 18:30N 59°21' E 022°28'713.3
2017-Jul-13 18:01N 59°17' E 022°17'713.4
2017-Jul-13 17:31N 59°13' E 022°07'713.5
2017-Jul-13 17:00N 59°09' E 021°56'713.4
2017-Jul-13 16:31N 59°04' E 021°46'713.2
2017-Jul-13 16:00N 58°59' E 021°38'713.2
2017-Jul-13 15:30N 58°54' E 021°30'2313.0
2017-Jul-13 13:43N 58°35' E 021°03'17412.5
2017-Jul-12 23:47N 56°24' E 017°33'613.3
2017-Jul-12 23:20N 56°20' E 017°25'413.3
2017-Jul-12 23:00N 56°17' E 017°18'713.3
2017-Jul-12 22:28N 56°13' E 017°08'613.4
2017-Jul-12 22:00N 56°10' E 016°59'713.3
2017-Jul-12 21:30N 56°06' E 016°49'713.4
2017-Jul-12 21:00N 56°02' E 016°39'713.2
2017-Jul-12 20:30N 55°58' E 016°30'713.2
2017-Jul-12 20:00N 55°54' E 016°20'8713.2
2017-Jul-12 13:27N 55°04' E 014°15'613.0
2017-Jul-12 13:00N 55°00' E 014°08'713.6
2017-Jul-12 12:29N 54°58' E 013°56'713.5
2017-Jul-12 12:00N 54°56' E 013°45'713.6
2017-Jul-12 11:29N 54°54' E 013°34'3813.3
2017-Jul-12 08:38N 54°40' E 012°32'213.0
2017-Jul-12 08:30N 54°40' E 012°30'712.9
2017-Jul-12 07:58N 54°35' E 012°20'613.2
2017-Jul-12 07:30N 54°30' E 012°16'712.6
2017-Jul-12 06:58N 54°24' E 012°09'2513.1
2017-Jul-12 05:02N 54°30' E 011°26'013.0
2017-Jul-12 05:00N 54°30' E 011°26'612.8
2017-Jul-12 04:30N 54°33' E 011°16'713.0
2017-Jul-12 04:00N 54°35' E 011°05'713.5
2017-Jul-12 03:30N 54°35' E 010°54'713.4
2017-Jul-12 03:00N 54°34' E 010°42'713.5
2017-Jul-12 02:28N 54°32' E 010°30'613.4
2017-Jul-12 02:00N 54°30' E 010°20'711.1
2017-Jul-12 01:21N 54°24' E 010°12'20 4.7
2017-Jul-11 21:03N 54°17' E 009°40'1 6.6
2017-Jul-11 20:56N 54°17' E 009°39'4 6.8
2017-Jul-11 20:18N 54°13' E 009°36'2 6.7
2017-Jul-11 20:00N 54°12' E 009°33'4 6.7
2017-Jul-11 19:28N 54°11' E 009°27'3 6.4
2017-Jul-11 18:59N 54°09' E 009°23'4 5.7
2017-Jul-11 18:17N 54°06' E 009°20'2 6.6
2017-Jul-11 18:00N 54°04' E 009°19'3 6.7
2017-Jul-11 17:30N 54°01' E 009°18'3 6.5
2017-Jul-11 17:01N 53°58' E 009°15'3 6.1
2017-Jul-11 16:30N 53°55' E 009°12'3 5.4
2017-Jul-11 16:01N 53°54' E 009°09'0 0.0
2017-Jul-11 15:30N 53°54' E 009°09'1 3.0
2017-Jul-11 15:01N 53°53' E 009°06'0 0.2
2017-Jul-11 14:30N 53°53' E 009°06'2 3.5
2017-Jul-11 14:00N 53°53' E 009°09'  

Dump ship's entire track history